Terminal Aerodrome Forecast
Issued by NWS St Louis, MO

Home | Current Version | Previous Version | Text Only | Print | Product List | Glossary On
Versions: 1 2 3 4 5 6 7 8 9 10 11 12 13 14 15 16 17 18 19 20 21 22 23 24 25 26 27 28 29 30 31 32 33 34
380
FTUS43 KLSX 210851 AAB
TAFSTL
TAF AMD
KSTL 210851Z 2109/2212 VRB04KT 6SM -SHRA BR OVC050
      TEMPO 2109/2113 5SM -SHRA BR BKN025
     FM211300 VRB04KT 4SM BR VCSH OVC020
     FM211600 05005KT P6SM BKN030
     FM220000 VRB04KT P6SM BKN040
     FM220600 VRB03KT 5SM BR SKC=

USA.gov is the U.S. government's official web portal to all federal, state and local government web resources and services.